Time;durP1;ratioP1;P1;durP2;ratioP2;P2;SDS_P1;SDS_P2;PMS_P1;PMS_P2;Temp;Humidity;BMP_temperature;BMP_pressure;BME280_temperature;BME280_humidity;BME280_pressure;Samples;Min_cycle;Max_cycle;Signal;HPM_P1;HPM_P2
2022/06/04 00:02:05;;;;;;;24.65;10.55;;;;;;;;;;5013977;28;20121;-62
2022/06/04 00:04:32;;;;;;;34.50;10.13;;;;;;;;;;5013400;28;20113;-62
2022/06/04 00:06:58;;;;;;;26.90;10.75;;;;;;;;;;5014396;28;20198;-62
2022/06/04 00:09:28;;;;;;;25.33;10.70;;;;;;;;;;5013699;28;20499;-62
2022/06/04 00:17:26;;;;;;;50.38;11.30;;;;;;;;;;5011976;28;20046;-62
2022/06/04 00:19:53;;;;;;;39.67;10.77;;;;;;;;;;5013018;28;20581;-62
2022/06/04 00:22:19;;;;;;;41.95;10.63;;;;;;;;;;5013303;28;20156;-62
2022/06/04 00:24:46;;;;;;;28.83;9.45;;;;;;;;;;5014555;28;20073;-63
2022/06/04 00:27:13;;;;;;;18.20;8.27;;;;;;;;;;5013214;28;20490;-62
2022/06/04 00:29:40;;;;;;;35.92;9.35;;;;;;;;;;5012631;28;20128;-63
2022/06/04 00:32:07;;;;;;;23.08;8.52;;;;;;;;;;5012339;28;20081;-62
2022/06/04 00:34:33;;;;;;;34.45;9.50;;;;;;;;;;5012826;28;20038;-62
2022/06/04 00:37:00;;;;;;;37.47;10.43;;;;;;;;;;5013775;28;20116;-62
2022/06/04 00:39:26;;;;;;;33.28;8.82;;;;;;;;;;5012693;28;20049;-62
2022/06/04 00:42:07;;;;;;;40.15;9.77;;;;;;;;;;5013289;28;20037;-63
2022/06/04 00:44:33;;;;;;;16.33;7.07;;;;;;;;;;5013168;28;20041;-62
2022/06/04 00:47:08;;;;;;;26.42;8.70;;;;;;;;;;5012689;28;20474;-62
2022/06/04 00:49:35;;;;;;;24.52;8.35;;;;;;;;;;5013007;28;20069;-63
2022/06/04 00:52:07;;;;;;;23.58;7.50;;;;;;;;;;5014532;28;20048;-62
2022/06/04 00:54:33;;;;;;;21.80;7.80;;;;;;;;;;5012815;28;20495;-62
2022/06/04 00:57:09;;;;;;;24.10;8.15;;;;;;;;;;5011466;28;20144;-62
2022/06/04 00:59:44;;;;;;;16.60;7.10;;;;;;;;;;5013099;28;20046;-62
2022/06/04 01:02:12;;;;;;;27.08;8.50;;;;;;;;;;5011596;28;20109;-63
2022/06/04 01:05:00;;;;;;;22.75;7.82;;;;;;;;;;5012653;28;20030;-62
2022/06/04 01:07:29;;;;;;;26.33;7.45;;;;;;;;;;5012586;28;20092;-62
2022/06/04 01:09:59;;;;;;;12.43;6.60;;;;;;;;;;5013621;28;20065;-62
2022/06/04 01:12:40;;;;;;;14.63;7.18;;;;;;;;;;5012523;28;20049;-62
2022/06/04 01:15:16;;;;;;;25.50;7.50;;;;;;;;;;5012382;28;20046;-63
2022/06/04 01:17:42;;;;;;;20.20;7.68;;;;;;;;;;5012161;28;20117;-62
2022/06/04 01:20:35;;;;;;;123.85;12.65;;;;;;;;;;5012422;28;20128;-61
2022/06/04 01:23:20;;;;;;;23.10;7.13;;;;;;;;;;5011146;28;20122;-62
2022/06/04 01:26:05;;;;;;;21.55;6.45;;;;;;;;;;5012359;28;20046;-62
2022/06/04 01:28:35;;;;;;;16.00;6.55;;;;;;;;;;5012220;28;20073;-62
2022/06/04 01:31:03;;;;;;;16.83;6.40;;;;;;;;;;5013433;28;20414;-62
2022/06/04 01:33:46;;;;;;;23.23;6.85;;;;;;;;;;5011688;28;20125;-62
2022/06/04 01:36:25;;;;;;;27.48;7.28;;;;;;;;;;5011687;28;20076;-62
2022/06/04 01:38:57;;;;;;;14.80;5.97;;;;;;;;;;5012494;28;20125;-62
2022/06/04 01:41:27;;;;;;;19.08;6.72;;;;;;;;;;5011970;28;20042;-62
2022/06/04 01:43:55;;;;;;;16.08;5.90;;;;;;;;;;5012187;28;20117;-62
2022/06/04 01:46:22;;;;;;;27.95;7.45;;;;;;;;;;5010835;28;20128;-62
2022/06/04 01:48:51;;;;;;;14.25;5.00;;;;;;;;;;5012970;28;20073;-62
2022/06/04 01:51:20;;;;;;;18.90;5.55;;;;;;;;;;5011016;28;20129;-63
2022/06/04 01:53:47;;;;;;;13.85;5.45;;;;;;;;;;5011895;28;20053;-62
2022/06/04 01:56:19;;;;;;;19.77;6.15;;;;;;;;;;5009994;28;20045;-64
2022/06/04 01:58:58;;;;;;;18.52;5.90;;;;;;;;;;5012128;28;20061;-62
2022/06/04 02:01:28;;;;;;;28.88;6.90;;;;;;;;;;5011436;28;20088;-62
2022/06/04 02:03:57;;;;;;;12.40;6.03;;;;;;;;;;5012077;28;20490;-62
2022/06/04 02:06:26;;;;;;;10.15;5.00;;;;;;;;;;5011700;28;20157;-62
2022/06/04 02:09:01;;;;;;;12.60;4.93;;;;;;;;;;5004557;28;20118;-62
2022/06/04 02:11:29;;;;;;;24.75;6.05;;;;;;;;;;5011663;28;20053;-62
2022/06/04 02:13:58;;;;;;;11.23;5.00;;;;;;;;;;5011243;28;20108;-62
2022/06/04 02:16:28;;;;;;;36.67;7.13;;;;;;;;;;5010069;28;20563;-62
2022/06/04 02:18:56;;;;;;;29.90;6.72;;;;;;;;;;5011757;28;20046;-62
2022/06/04 02:21:23;;;;;;;13.27;5.50;;;;;;;;;;5009951;28;20133;-62
2022/06/04 02:23:50;;;;;;;33.30;7.47;;;;;;;;;;5011338;28;20046;-62
2022/06/04 02:26:17;;;;;;;16.35;5.32;;;;;;;;;;5011652;28;20062;-62
2022/06/04 02:28:45;;;;;;;13.90;4.70;;;;;;;;;;5011154;28;20034;-62
2022/06/04 02:31:29;;;;;;;17.85;5.20;;;;;;;;;;5012553;28;20053;-62
2022/06/04 02:34:15;;;;;;;21.02;6.00;;;;;;;;;;5010722;28;20061;-62
2022/06/04 02:36:44;;;;;;;22.08;5.63;;;;;;;;;;5008848;28;20085;-62
2022/06/04 02:39:24;;;;;;;33.90;7.18;;;;;;;;;;5010923;28;20486;-62
2022/06/04 02:41:55;;;;;;;14.93;5.38;;;;;;;;;;5010581;28;20076;-63
2022/06/04 02:44:26;;;;;;;23.98;5.95;;;;;;;;;;5010567;28;20510;-62
2022/06/04 02:47:00;;;;;;;19.00;5.80;;;;;;;;;;5011353;28;20446;-62
2022/06/04 02:49:36;;;;;;;38.35;7.20;;;;;;;;;;5010400;28;20057;-62
2022/06/04 02:52:03;;;;;;;16.75;5.93;;;;;;;;;;5012237;28;20074;-62
2022/06/04 02:54:33;;;;;;;25.40;6.18;;;;;;;;;;5011488;28;20034;-63
2022/06/04 02:57:00;;;;;;;35.22;7.47;;;;;;;;;;5010319;28;20129;-62
2022/06/04 02:59:27;;;;;;;29.65;5.70;;;;;;;;;;5010439;28;20053;-62
2022/06/04 03:01:57;;;;;;;33.80;5.43;;;;;;;;;;5010291;28;20042;-62
2022/06/04 03:04:23;;;;;;;97.78;9.93;;;;;;;;;;5010197;28;20038;-62
2022/06/04 03:06:50;;;;;;;35.22;7.50;;;;;;;;;;5011594;28;20050;-62
2022/06/04 03:09:18;;;;;;;32.00;5.35;;;;;;;;;;5010656;28;20391;-62
2022/06/04 03:11:46;;;;;;;11.30;4.35;;;;;;;;;;5010299;28;20045;-62
2022/06/04 03:14:14;;;;;;;20.75;5.45;;;;;;;;;;5010832;28;20044;-62
2022/06/04 03:16:42;;;;;;;29.35;5.70;;;;;;;;;;5010568;28;20557;-62
2022/06/04 03:19:09;;;;;;;35.47;6.43;;;;;;;;;;5011868;28;20042;-62
2022/06/04 03:21:40;;;;;;;13.07;4.53;;;;;;;;;;5010807;28;20050;-62
2022/06/04 03:24:07;;;;;;;17.10;5.10;;;;;;;;;;5006499;28;20030;-62
2022/06/04 03:26:34;;;;;;;17.80;4.70;;;;;;;;;;5010540;28;20046;-63
2022/06/04 03:29:01;;;;;;;30.35;5.97;;;;;;;;;;5010446;28;20066;-62
2022/06/04 03:31:28;;;;;;;28.63;7.72;;;;;;;;;;5010987;28;20045;-62
2022/06/04 03:33:55;;;;;;;11.52;4.47;;;;;;;;;;5011658;28;20038;-63
2022/06/04 03:36:24;;;;;;;27.40;5.82;;;;;;;;;;5009523;28;20473;-63
2022/06/04 03:38:54;;;;;;;10.98;4.45;;;;;;;;;;5010442;28;20128;-63
2022/06/04 03:41:20;;;;;;;27.30;5.53;;;;;;;;;;5009480;28;20069;-63
2022/06/04 03:43:51;;;;;;;13.70;4.63;;;;;;;;;;5008853;28;20089;-63
2022/06/04 03:46:19;;;;;;;25.25;5.70;;;;;;;;;;5010473;28;20046;-63
2022/06/04 03:48:46;;;;;;;25.52;6.28;;;;;;;;;;5010124;28;20488;-63
2022/06/04 03:51:12;;;;;;;18.45;5.35;;;;;;;;;;5010309;28;20050;-63
2022/06/04 03:53:39;;;;;;;16.02;4.97;;;;;;;;;;5014009;28;20042;-63
2022/06/04 03:56:06;;;;;;;12.13;4.43;;;;;;;;;;5011310;28;20046;-63
2022/06/04 03:58:32;;;;;;;13.18;4.70;;;;;;;;;;5013872;28;21088;-63
2022/06/04 04:00:59;;;;;;;8.88;3.70;;;;;;;;;;5015347;28;20052;-63
2022/06/04 04:03:25;;;;;;;14.27;5.25;;;;;;;;;;5013696;28;20058;-63
2022/06/04 04:05:53;;;;;;;13.20;4.57;;;;;;;;;;5014051;28;20597;-63
2022/06/04 04:08:21;;;;;;;18.25;5.50;;;;;;;;;;5013506;28;20125;-63
2022/06/04 04:10:48;;;;;;;23.55;5.35;;;;;;;;;;5013611;28;20069;-63
2022/06/04 04:13:15;;;;;;;19.58;4.97;;;;;;;;;;5014847;28;20549;-63
2022/06/04 04:15:42;;;;;;;11.00;4.30;;;;;;;;;;5014417;28;20042;-63
2022/06/04 04:18:09;;;;;;;8.65;3.55;;;;;;;;;;5012985;28;20038;-64
2022/06/04 04:20:37;;;;;;;15.82;4.25;;;;;;;;;;5012052;28;20140;-63
2022/06/04 04:23:06;;;;;;;21.58;5.07;;;;;;;;;;5013932;28;20514;-64
2022/06/04 04:25:33;;;;;;;31.85;5.22;;;;;;;;;;5012785;28;20491;-64
2022/06/04 04:28:00;;;;;;;11.20;3.95;;;;;;;;;;5014841;28;20057;-63
2022/06/04 04:30:28;;;;;;;14.15;4.07;;;;;;;;;;5011494;28;20038;-64
2022/06/04 04:32:55;;;;;;;116.65;10.90;;;;;;;;;;5008292;28;20038;-64
2022/06/04 04:35:22;;;;;;;25.70;4.63;;;;;;;;;;5012871;28;20042;-64
2022/06/04 04:37:49;;;;;;;19.23;4.28;;;;;;;;;;5012862;28;20561;-64
2022/06/04 04:40:17;;;;;;;20.60;4.60;;;;;;;;;;5013335;28;20038;-64
2022/06/04 04:42:44;;;;;;;8.68;3.63;;;;;;;;;;5013702;28;20045;-63
2022/06/04 04:45:11;;;;;;;9.95;3.22;;;;;;;;;;5013163;28;20029;-64
2022/06/04 04:47:39;;;;;;;11.05;3.53;;;;;;;;;;5012587;28;20042;-63
2022/06/04 04:50:07;;;;;;;7.82;3.08;;;;;;;;;;5013285;28;20061;-64
2022/06/04 04:52:34;;;;;;;14.82;3.75;;;;;;;;;;5013058;28;20141;-64
2022/06/04 04:55:00;;;;;;;15.98;3.88;;;;;;;;;;5014093;28;20049;-63
2022/06/04 04:57:27;;;;;;;22.20;4.90;;;;;;;;;;5012556;28;20125;-64
2022/06/04 04:59:53;;;;;;;11.32;3.28;;;;;;;;;;5013106;28;20120;-64
2022/06/04 05:02:20;;;;;;;21.80;3.88;;;;;;;;;;5012348;28;20554;-64
2022/06/04 05:04:47;;;;;;;20.20;3.97;;;;;;;;;;5011577;28;20038;-64
2022/06/04 05:07:13;;;;;;;13.52;3.95;;;;;;;;;;5014389;28;20042;-64
2022/06/04 05:09:40;;;;;;;20.90;4.25;;;;;;;;;;5012446;28;20490;-63
2022/06/04 05:12:08;;;;;;;22.63;4.25;;;;;;;;;;5011904;28;20055;-64
2022/06/04 05:14:35;;;;;;;16.98;4.07;;;;;;;;;;5010685;28;20073;-64
2022/06/04 05:17:02;;;;;;;22.23;4.43;;;;;;;;;;5012218;28;20073;-64
2022/06/04 05:19:29;;;;;;;28.58;5.32;;;;;;;;;;5012506;28;20507;-64
2022/06/04 05:21:56;;;;;;;26.63;5.03;;;;;;;;;;5013672;28;20042;-64
2022/06/04 05:24:26;;;;;;;17.60;4.57;;;;;;;;;;5027488;28;20038;-64
2022/06/04 05:26:53;;;;;;;28.45;5.47;;;;;;;;;;5012277;28;20038;-64
2022/06/04 05:29:20;;;;;;;7.78;2.63;;;;;;;;;;5012257;28;20049;-64
2022/06/04 05:31:47;;;;;;;16.73;3.92;;;;;;;;;;5009335;28;20141;-64
2022/06/04 05:34:15;;;;;;;31.92;4.18;;;;;;;;;;5013369;28;20038;-64
2022/06/04 05:36:42;;;;;;;12.65;2.65;;;;;;;;;;5012349;28;20570;-64
2022/06/04 05:39:09;;;;;;;8.45;2.63;;;;;;;;;;5012147;28;20096;-65
2022/06/04 05:41:36;;;;;;;9.18;2.80;;;;;;;;;;5011914;28;20056;-64
2022/06/04 05:44:03;;;;;;;7.25;2.42;;;;;;;;;;5012080;28;20510;-65
2022/06/04 05:46:29;;;;;;;33.28;4.78;;;;;;;;;;5011958;28;20046;-65
2022/06/04 05:48:57;;;;;;;10.50;3.40;;;;;;;;;;5013141;28;20548;-65
2022/06/04 05:51:25;;;;;;;17.75;3.75;;;;;;;;;;5011810;28;20118;-65
2022/06/04 05:53:53;;;;;;;5.00;2.25;;;;;;;;;;5011310;28;20057;-65
2022/06/04 05:56:29;;;;;;;29.50;3.28;;;;;;;;;;5011490;28;20108;-65
2022/06/04 05:58:57;;;;;;;15.13;2.97;;;;;;;;;;5012166;28;20124;-65
2022/06/04 06:01:25;;;;;;;25.90;4.10;;;;;;;;;;5011883;28;20072;-65
2022/06/04 06:03:53;;;;;;;26.52;3.65;;;;;;;;;;5012326;28;20072;-64
2022/06/04 06:06:21;;;;;;;7.78;2.47;;;;;;;;;;5010518;28;20060;-65
2022/06/04 06:08:58;;;;;;;14.25;3.10;;;;;;;;;;5011442;28;20034;-65
2022/06/04 06:11:25;;;;;;;39.83;4.22;;;;;;;;;;5012189;28;20529;-65
2022/06/04 06:13:52;;;;;;;7.93;2.10;;;;;;;;;;5011761;28;20397;-65
2022/06/04 06:16:23;;;;;;;9.50;2.45;;;;;;;;;;5010733;28;20065;-65
2022/06/04 06:18:50;;;;;;;25.55;4.72;;;;;;;;;;5009709;28;20458;-65
2022/06/04 06:21:18;;;;;;;15.38;2.67;;;;;;;;;;5010366;28;20042;-65
2022/06/04 06:23:44;;;;;;;15.10;2.90;;;;;;;;;;5010467;28;20470;-65
2022/06/04 06:26:13;;;;;;;13.35;2.58;;;;;;;;;;5010355;28;20026;-65
2022/06/04 06:28:41;;;;;;;28.67;4.43;;;;;;;;;;5010630;28;20042;-65
2022/06/04 06:31:08;;;;;;;6.15;2.42;;;;;;;;;;5012671;28;20113;-65
2022/06/04 06:33:35;;;;;;;24.30;3.83;;;;;;;;;;5010920;28;20042;-65
2022/06/04 06:36:03;;;;;;;12.77;2.88;;;;;;;;;;5010845;28;20129;-65
2022/06/04 06:38:30;;;;;;;13.82;2.80;;;;;;;;;;5011323;28;20053;-65
2022/06/04 06:40:58;;;;;;;42.03;5.53;;;;;;;;;;5010883;28;20117;-64
2022/06/04 06:46:29;;;;;;;17.27;3.05;;;;;;;;;;5010042;28;20145;-65
2022/06/04 06:48:58;;;;;;;22.27;3.78;;;;;;;;;;5009564;28;20148;-64
2022/06/04 06:51:26;;;;;;;14.43;3.25;;;;;;;;;;5009559;28;20042;-65
2022/06/04 06:53:56;;;;;;;18.70;2.80;;;;;;;;;;5009218;28;20041;-65
2022/06/04 06:56:25;;;;;;;18.17;3.53;;;;;;;;;;5009094;28;20054;-65
2022/06/04 06:58:52;;;;;;;12.65;2.55;;;;;;;;;;5008294;28;20046;-64
2022/06/04 07:01:21;;;;;;;14.98;3.05;;;;;;;;;;5009986;28;20108;-65
2022/06/04 07:03:50;;;;;;;11.35;3.22;;;;;;;;;;5009330;28;20042;-64
2022/06/04 07:06:27;;;;;;;15.70;3.50;;;;;;;;;;5009498;28;20074;-65
2022/06/04 07:08:53;;;;;;;11.65;2.88;;;;;;;;;;5009466;28;20588;-65
2022/06/04 07:11:20;;;;;;;55.58;5.13;;;;;;;;;;5009331;28;20577;-65
2022/06/04 07:13:46;;;;;;;8.02;2.40;;;;;;;;;;5009422;28;20149;-65
2022/06/04 07:16:13;;;;;;;9.75;2.88;;;;;;;;;;5010152;28;20050;-65
2022/06/04 07:18:39;;;;;;;43.25;4.75;;;;;;;;;;5008750;28;20469;-65
2022/06/04 07:21:06;;;;;;;14.40;3.20;;;;;;;;;;5009216;28;20038;-65
2022/06/04 07:23:34;;;;;;;11.75;2.40;;;;;;;;;;5010783;28;20042;-65
2022/06/04 07:26:01;;;;;;;15.77;2.72;;;;;;;;;;5010030;28;20478;-64
2022/06/04 07:28:28;;;;;;;23.63;3.47;;;;;;;;;;5014530;28;20046;-64
2022/06/04 07:30:56;;;;;;;10.68;2.58;;;;;;;;;;5015842;28;20084;-64
2022/06/04 07:33:22;;;;;;;9.85;2.80;;;;;;;;;;5013713;28;20057;-64
2022/06/04 07:35:50;;;;;;;13.50;3.58;;;;;;;;;;5014483;28;20108;-64
2022/06/04 07:38:17;;;;;;;15.55;3.03;;;;;;;;;;5013082;28;20509;-64
2022/06/04 07:40:44;;;;;;;29.77;4.72;;;;;;;;;;5011448;28;20121;-64
2022/06/04 07:43:12;;;;;;;9.75;2.72;;;;;;;;;;5015528;28;20168;-64
2022/06/04 07:45:38;;;;;;;17.20;3.72;;;;;;;;;;5014519;28;20045;-64
2022/06/04 07:48:06;;;;;;;15.65;3.10;;;;;;;;;;5013376;28;20077;-63
2022/06/04 07:50:34;;;;;;;27.95;3.65;;;;;;;;;;5014037;28;20049;-64
2022/06/04 07:53:01;;;;;;;12.30;2.97;;;;;;;;;;5013260;28;20548;-64
2022/06/04 07:55:27;;;;;;;47.83;6.95;;;;;;;;;;5012318;28;20137;-64
2022/06/04 07:57:54;;;;;;;13.02;3.28;;;;;;;;;;5015184;28;20084;-64
2022/06/04 08:00:24;;;;;;;29.25;4.07;;;;;;;;;;5013548;28;20511;-64
2022/06/04 08:02:51;;;;;;;38.58;4.72;;;;;;;;;;5013379;28;20117;-64
2022/06/04 08:05:23;;;;;;;9.02;2.88;;;;;;;;;;5014554;28;20038;-64
2022/06/04 08:07:51;;;;;;;23.83;3.95;;;;;;;;;;5011751;28;20113;-64
2022/06/04 08:10:17;;;;;;;13.30;3.42;;;;;;;;;;5015723;28;20049;-64
2022/06/04 08:13:09;;;;;;;14.98;3.80;;;;;;;;;;5013684;28;20490;-64
2022/06/04 08:15:30;;;;;;;9.48;2.88;;;;;;;;;;5014026;28;20068;-64
2022/06/04 08:17:58;;;;;;;20.25;3.53;;;;;;;;;;5010340;28;20124;-64
2022/06/04 08:20:24;;;;;;;27.77;5.07;;;;;;;;;;5012121;28;20034;-65
2022/06/04 08:22:52;;;;;;;25.60;4.95;;;;;;;;;;5010882;28;20118;-64
2022/06/04 08:25:18;;;;;;;16.83;3.67;;;;;;;;;;5014747;28;20129;-65
2022/06/04 08:27:45;;;;;;;14.98;3.45;;;;;;;;;;5014432;28;20049;-65
2022/06/04 08:30:12;;;;;;;17.75;3.83;;;;;;;;;;5013260;28;20072;-65
2022/06/04 08:32:39;;;;;;;17.67;3.53;;;;;;;;;;5012359;28;20455;-64
2022/06/04 08:35:06;;;;;;;25.20;4.32;;;;;;;;;;5012576;28;20042;-65
2022/06/04 08:37:32;;;;;;;59.20;5.63;;;;;;;;;;5012166;28;20455;-64
2022/06/04 08:40:00;;;;;;;16.23;3.88;;;;;;;;;;5013296;28;20491;-64
2022/06/04 08:42:36;;;;;;;49.88;5.47;;;;;;;;;;5012699;28;20128;-64
2022/06/04 08:45:03;;;;;;;36.45;5.15;;;;;;;;;;5010766;28;20058;-64
2022/06/04 08:47:32;;;;;;;64.93;7.28;;;;;;;;;;5012868;28;20132;-64
2022/06/04 08:50:10;;;;;;;30.75;5.50;;;;;;;;;;5010832;28;20041;-64
2022/06/04 08:52:48;;;;;;;67.50;7.13;;;;;;;;;;5013508;28;20402;-64
2022/06/04 08:58:08;;;;;;;35.55;5.70;;;;;;;;;;5012770;28;20121;-64
2022/06/04 09:00:38;;;;;;;20.60;3.85;;;;;;;;;;5013135;28;20137;-64
2022/06/04 09:03:17;;;;;;;15.65;3.53;;;;;;;;;;5009458;28;20474;-64
2022/06/04 09:05:49;;;;;;;17.77;3.67;;;;;;;;;;5013028;28;20042;-64
2022/06/04 09:08:28;;;;;;;12.38;3.50;;;;;;;;;;5012647;28;20466;-64
2022/06/04 09:10:57;;;;;;;14.82;4.15;;;;;;;;;;5012868;28;20117;-64
2022/06/04 09:13:33;;;;;;;30.17;4.78;;;;;;;;;;5013160;28;20137;-64
2022/06/04 09:16:02;;;;;;;49.28;5.03;;;;;;;;;;5011810;28;20046;-65
2022/06/04 09:18:32;;;;;;;33.05;4.13;;;;;;;;;;5005746;28;20125;-64
2022/06/04 09:21:00;;;;;;;22.10;3.63;;;;;;;;;;5012424;28;20045;-65
2022/06/04 09:23:27;;;;;;;29.25;4.57;;;;;;;;;;5012375;28;20041;-64
2022/06/04 09:26:12;;;;;;;37.38;5.28;;;;;;;;;;5012052;28;20037;-64
2022/06/04 09:28:58;;;;;;;73.55;7.13;;;;;;;;;;5012153;28;20058;-63
2022/06/04 09:31:24;;;;;;;170.02;13.30;;;;;;;;;;5012781;28;20038;-64
2022/06/04 09:34:10;;;;;;;9.60;3.20;;;;;;;;;;5013336;28;20096;-64
2022/06/04 09:36:38;;;;;;;21.95;4.38;;;;;;;;;;5011510;28;20485;-64
2022/06/04 09:39:06;;;;;;;68.32;7.40;;;;;;;;;;5012128;28;20364;-64
2022/06/04 09:41:34;;;;;;;53.35;5.50;;;;;;;;;;5011059;28;20132;-64
2022/06/04 09:44:12;;;;;;;11.15;2.78;;;;;;;;;;5012153;28;20120;-64
2022/06/04 09:46:43;;;;;;;48.65;6.13;;;;;;;;;;5011038;28;20518;-56
2022/06/04 09:49:33;;;;;;;22.65;4.65;;;;;;;;;;5012296;28;20046;-61
2022/06/04 09:52:10;;;;;;;11.32;3.28;;;;;;;;;;5008519;28;20054;-66
2022/06/04 09:54:37;;;;;;;17.90;3.15;;;;;;;;;;5006081;28;20568;-65
2022/06/04 09:57:05;;;;;;;158.50;13.80;;;;;;;;;;5005675;28;20065;-63
2022/06/04 09:59:33;;;;;;;27.77;3.75;;;;;;;;;;5004791;28;20462;-62
2022/06/04 10:02:01;;;;;;;20.98;4.22;;;;;;;;;;5009361;28;20490;-73
2022/06/04 10:04:35;;;;;;;26.23;4.18;;;;;;;;;;5008133;28;20065;-68
2022/06/04 10:07:06;;;;;;;28.23;6.63;;;;;;;;;;5006324;28;20045;-64
2022/06/04 10:13:42;;;;;;;9.65;3.08;;;;;;;;;;5005774;28;20076;-65
2022/06/04 10:15:13;;;;;;;18.75;3.55;;;;;;;;;;5005653;28;20052;-69
2022/06/04 10:17:40;;;;;;;21.67;3.67;;;;;;;;;;5008782;28;20052;-63
2022/06/04 10:20:22;;;;;;;23.10;4.10;;;;;;;;;;5008134;28;20049;-65
2022/06/04 10:22:49;;;;;;;16.42;3.28;;;;;;;;;;4993783;28;20077;-68
2022/06/04 10:25:17;;;;;;;38.22;5.10;;;;;;;;;;5010288;28;20092;-67
2022/06/04 10:27:58;;;;;;;21.48;3.60;;;;;;;;;;5004380;28;20077;-68
2022/06/04 10:30:25;;;;;;;41.00;5.57;;;;;;;;;;5011005;28;20033;-61
2022/06/04 10:32:58;;;;;;;33.80;4.53;;;;;;;;;;5010039;28;20128;-64
2022/06/04 10:35:30;;;;;;;29.98;4.35;;;;;;;;;;5009873;28;20376;-70
2022/06/04 10:38:15;;;;;;;31.45;4.80;;;;;;;;;;4991422;28;20041;-60
2022/06/04 10:40:45;;;;;;;43.75;5.00;;;;;;;;;;4990708;28;20419;-60
2022/06/04 10:43:46;;;;;;;37.13;4.30;;;;;;;;;;4989924;28;20046;-61
2022/06/04 10:46:18;;;;;;;51.88;6.22;;;;;;;;;;4991113;28;20470;-61
2022/06/04 10:48:48;;;;;;;35.33;5.10;;;;;;;;;;4989133;28;20049;-59
2022/06/04 10:51:28;;;;;;;52.67;5.90;;;;;;;;;;4989076;28;20538;-62
2022/06/04 10:54:03;;;;;;;60.83;6.32;;;;;;;;;;4991633;28;20045;-60
2022/06/04 10:56:35;;;;;;;25.08;4.10;;;;;;;;;;4990427;28;20043;-61
2022/06/04 10:59:06;;;;;;;20.47;3.47;;;;;;;;;;4991365;28;20097;-63
2022/06/04 11:01:35;;;;;;;49.95;5.60;;;;;;;;;;4990655;28;20050;-61
2022/06/04 11:04:14;;;;;;;20.38;3.53;;;;;;;;;;4992019;28;20113;-62
2022/06/04 11:06:42;;;;;;;42.83;5.20;;;;;;;;;;4990945;28;20057;-60
2022/06/04 11:09:19;;;;;;;24.80;3.90;;;;;;;;;;4990702;28;20035;-61
2022/06/04 11:11:57;;;;;;;58.65;6.38;;;;;;;;;;4990812;28;20507;-61
2022/06/04 11:14:36;;;;;;;25.00;4.28;;;;;;;;;;4991438;28;20039;-62
2022/06/04 11:17:12;;;;;;;23.45;3.90;;;;;;;;;;4991267;28;20038;-60
2022/06/04 11:19:44;;;;;;;33.30;4.70;;;;;;;;;;4990743;28;20043;-60
2022/06/04 11:22:14;;;;;;;40.08;5.32;;;;;;;;;;4992321;28;20121;-59
2022/06/04 11:24:46;;;;;;;25.98;4.20;;;;;;;;;;4990068;28;20141;-58
2022/06/04 11:27:19;;;;;;;80.53;8.05;;;;;;;;;;4987665;28;20546;-58
2022/06/04 11:29:47;;;;;;;27.67;4.38;;;;;;;;;;4990734;28;20133;-60
2022/06/04 11:32:19;;;;;;;124.88;10.20;;;;;;;;;;4990894;28;20050;-60
2022/06/04 11:35:03;;;;;;;84.22;9.25;;;;;;;;;;4990127;28;20043;-58
2022/06/04 11:37:36;;;;;;;35.80;6.35;;;;;;;;;;5006630;28;20510;-65
2022/06/04 11:40:08;;;;;;;29.13;5.85;;;;;;;;;;5011867;28;20046;-64
2022/06/04 11:42:51;;;;;;;33.05;6.07;;;;;;;;;;5010144;28;20057;-67
2022/06/04 11:45:18;;;;;;;;;;;;;;;;;;5011855;28;20042;-72
2022/06/04 11:47:50;;;;;;;40.10;6.40;;;;;;;;;;5010050;28;19956;-62
2022/06/04 11:50:35;;;;;;;19.08;5.15;;;;;;;;;;5010783;28;20465;-71
2022/06/04 11:53:05;;;;;;;453.45;37.50;;;;;;;;;;5009583;28;20117;-60
2022/06/04 11:55:34;;;;;;;44.13;5.75;;;;;;;;;;5009506;28;20066;-57
2022/06/04 11:58:06;;;;;;;55.63;6.47;;;;;;;;;;5011765;28;20065;-57
2022/06/04 12:00:36;;;;;;;52.42;11.82;;;;;;;;;;5010167;28;20133;-56
2022/06/04 12:03:22;;;;;;;25.42;4.32;;;;;;;;;;5009631;28;20042;-57
2022/06/04 12:05:51;;;;;;;38.42;7.97;;;;;;;;;;5009974;28;20040;-56
2022/06/04 12:08:23;;;;;;;28.88;5.28;;;;;;;;;;5010125;28;20050;-57
2022/06/04 12:10:53;;;;;;;16.48;4.03;;;;;;;;;;5010397;28;20766;-57
2022/06/04 12:13:19;;;;;;;22.35;4.43;;;;;;;;;;5011664;28;20116;-57
2022/06/04 12:15:52;;;;;;;46.83;5.85;;;;;;;;;;5013226;28;20137;-57
2022/06/04 12:18:27;;;;;;;14.90;3.72;;;;;;;;;;5013446;28;20042;-57
2022/06/04 12:26:37;;;;;;;20.30;5.00;;;;;;;;;;5013016;28;20046;-57
2022/06/04 12:29:23;;;;;;;36.13;4.95;;;;;;;;;;5013217;28;20104;-57
2022/06/04 12:31:57;;;;;;;147.38;12.43;;;;;;;;;;5013128;28;20549;-62
2022/06/04 12:34:34;;;;;;;27.63;4.05;;;;;;;;;;5014157;28;20046;-63
2022/06/04 12:37:01;;;;;;;84.82;20.05;;;;;;;;;;5013421;28;20108;-64
2022/06/04 12:39:28;;;;;;;29.35;4.40;;;;;;;;;;5011033;28;20058;-63
2022/06/04 12:41:56;;;;;;;35.97;4.72;;;;;;;;;;5011147;28;20041;-63
2022/06/04 12:44:25;;;;;;;22.20;3.88;;;;;;;;;;5011392;28;20029;-69
2022/06/04 12:46:56;;;;;;;27.70;4.55;;;;;;;;;;5009921;28;20038;-62
2022/06/04 12:49:29;;;;;;;31.77;4.80;;;;;;;;;;5012694;28;20048;-63
2022/06/04 12:52:06;;;;;;;25.83;4.10;;;;;;;;;;5011472;28;20463;-65
2022/06/04 12:54:41;;;;;;;28.92;5.22;;;;;;;;;;5011561;28;20077;-64
2022/06/04 12:57:07;;;;;;;33.35;5.40;;;;;;;;;;5011179;28;20124;-59
2022/06/04 12:59:37;;;;;;;42.50;7.40;;;;;;;;;;5011846;28;20076;-62
2022/06/04 13:02:23;;;;;;;36.15;10.00;;;;;;;;;;5008773;28;20038;-64
2022/06/04 13:04:55;;;;;;;31.35;5.57;;;;;;;;;;5010972;28;20038;-62
2022/06/04 13:07:25;;;;;;;25.70;6.63;;;;;;;;;;5012399;28;20048;-63
2022/06/04 13:09:58;;;;;;;24.92;5.00;;;;;;;;;;5012532;28;20068;-62
2022/06/04 13:12:38;;;;;;;40.97;5.93;;;;;;;;;;5011405;28;20101;-64
2022/06/04 13:15:23;;;;;;;40.80;5.78;;;;;;;;;;5010741;28;20095;-72
2022/06/04 13:17:52;;;;;;;17.23;4.38;;;;;;;;;;5008150;28;20125;-61
2022/06/04 13:20:18;;;;;;;23.58;4.35;;;;;;;;;;5011454;28;20060;-60
2022/06/04 13:22:54;;;;;;;39.72;5.57;;;;;;;;;;5009946;28;20060;-64
2022/06/04 13:25:23;;;;;;;24.13;4.50;;;;;;;;;;5013445;28;20415;-65
2022/06/04 13:27:53;;;;;;;38.30;5.22;;;;;;;;;;5011273;28;20076;-63
2022/06/04 13:30:22;;;;;;;90.38;6.97;;;;;;;;;;5012609;28;20390;-66
2022/06/04 13:32:49;;;;;;;24.95;4.68;;;;;;;;;;5005556;28;20095;-64
2022/06/04 13:35:20;;;;;;;74.18;7.20;;;;;;;;;;5010091;28;20066;-71
2022/06/04 13:37:47;;;;;;;18.50;3.88;;;;;;;;;;5011415;28;20137;-64
2022/06/04 13:40:19;;;;;;;260.05;17.52;;;;;;;;;;5013141;28;20080;-63
2022/06/04 13:42:47;;;;;;;21.52;4.93;;;;;;;;;;5010195;28;20050;-58
2022/06/04 13:45:40;;;;;;;28.90;5.20;;;;;;;;;;5010093;28;20068;-62
2022/06/04 13:48:19;;;;;;;44.20;5.68;;;;;;;;;;5011487;28;20073;-62
2022/06/04 13:50:50;;;;;;;26.67;4.45;;;;;;;;;;5011688;28;20450;-61
2022/06/04 13:53:19;;;;;;;29.90;4.68;;;;;;;;;;5012085;28;20042;-59
2022/06/04 13:55:51;;;;;;;36.45;5.55;;;;;;;;;;5012177;28;20057;-72
2022/06/04 13:58:23;;;;;;;14.57;3.87;;;;;;;;;;5013579;28;20049;-59
2022/06/04 14:00:52;;;;;;;37.53;4.85;;;;;;;;;;5011895;28;20288;-59
2022/06/04 14:03:23;;;;;;;28.00;4.65;;;;;;;;;;5010859;28;20048;-62
2022/06/04 14:05:53;;;;;;;37.78;5.38;;;;;;;;;;5008512;28;20040;-59
2022/06/04 14:08:23;;;;;;;49.50;5.63;;;;;;;;;;5006615;28;20064;-59
2022/06/04 14:11:08;;;;;;;52.25;7.53;;;;;;;;;;5009109;28;20113;-57
2022/06/04 14:13:49;;;;;;;56.38;6.68;;;;;;;;;;5010178;28;20069;-58
2022/06/04 14:16:25;;;;;;;37.28;4.50;;;;;;;;;;5011815;28;20121;-58
2022/06/04 14:18:54;;;;;;;44.38;5.20;;;;;;;;;;5010403;28;20103;-58
2022/06/04 14:21:26;;;;;;;26.77;4.80;;;;;;;;;;5010174;28;20120;-58
2022/06/04 14:24:05;;;;;;;42.70;4.97;;;;;;;;;;5010609;28;20056;-64
2022/06/04 14:26:40;;;;;;;29.98;5.05;;;;;;;;;;5010730;28;20414;-64
2022/06/04 14:29:26;;;;;;;90.75;8.63;;;;;;;;;;5010457;28;20046;-64
2022/06/04 14:32:10;;;;;;;50.80;5.75;;;;;;;;;;5010598;28;20109;-62
2022/06/04 14:34:38;;;;;;;60.05;6.20;;;;;;;;;;5009964;28;20395;-63
2022/06/04 14:37:07;;;;;;;35.97;5.03;;;;;;;;;;5006455;28;20134;-65
2022/06/04 14:39:36;;;;;;;27.58;4.18;;;;;;;;;;5007522;28;20054;-61
2022/06/04 14:42:03;;;;;;;26.27;4.38;;;;;;;;;;5010563;28;20088;-60
2022/06/04 14:44:53;;;;;;;22.20;4.03;;;;;;;;;;5010834;28;20473;-63
2022/06/04 14:47:19;;;;;;;36.22;5.05;;;;;;;;;;5009826;28;20503;-59
2022/06/04 14:49:49;;;;;;;46.72;5.55;;;;;;;;;;5005528;28;20537;-61
2022/06/04 14:52:18;;;;;;;33.22;4.78;;;;;;;;;;5007677;28;20109;-59
2022/06/04 14:54:45;;;;;;;24.70;4.32;;;;;;;;;;5007979;28;20152;-59
2022/06/04 14:57:30;;;;;;;34.75;5.70;;;;;;;;;;5007055;28;20061;-60
2022/06/04 15:00:40;;;;;;;68.25;6.55;;;;;;;;;;5007349;28;20061;-60
2022/06/04 15:03:18;;;;;;;26.08;4.30;;;;;;;;;;5006931;28;20046;-57
2022/06/04 15:05:50;;;;;;;45.35;6.00;;;;;;;;;;5007477;28;20057;-61
2022/06/04 15:08:17;;;;;;;31.55;4.53;;;;;;;;;;5006534;28;20034;-61
2022/06/04 15:10:56;;;;;;;80.07;6.95;;;;;;;;;;5007936;28;20038;-61
2022/06/04 15:13:22;;;;;;;42.13;5.22;;;;;;;;;;5010538;28;20088;-60